createdAt,value
2023-01-08T00:00:36.402Z,8.46
2023-01-08T00:03:22.766Z,8.50
2023-01-08T00:06:12.049Z,8.49
2023-01-08T00:08:57.414Z,8.40
2023-01-08T00:11:44.267Z,8.51
2023-01-08T00:14:30.654Z,8.41
2023-01-08T00:17:15.924Z,8.27
2023-01-08T00:20:01.611Z,8.20
2023-01-08T00:22:51.073Z,8.13
2023-01-08T00:25:36.712Z,8.11
2023-01-08T00:28:22.219Z,7.88
2023-01-08T00:31:09.673Z,8.23
2023-01-08T00:33:55.226Z,8.11
2023-01-08T00:36:40.756Z,8.16
2023-01-08T00:39:26.513Z,8.15
2023-01-08T00:42:12.765Z,8.06
2023-01-08T00:44:58.325Z,8.18
2023-01-08T00:47:43.685Z,8.13
2023-01-08T00:50:29.242Z,8.04
2023-01-08T00:53:15.179Z,8.35
2023-01-08T00:56:06.527Z,8.30
2023-01-08T00:58:52.048Z,8.33
2023-01-08T01:01:37.767Z,8.29
2023-01-08T01:04:23.303Z,8.28
2023-01-08T01:07:08.672Z,8.30
2023-01-08T01:09:54.064Z,8.30
2023-01-08T01:12:39.851Z,8.23
2023-01-08T01:15:25.600Z,8.16
2023-01-08T01:18:11.325Z,8.17
2023-01-08T01:20:56.964Z,8.12
2023-01-08T01:23:42.626Z,8.13
2023-01-08T01:26:28.135Z,8.16
2023-01-08T01:29:13.447Z,8.20
2023-01-08T01:31:58.977Z,8.30
2023-01-08T01:34:44.454Z,8.25
2023-01-08T01:37:30.035Z,8.40
2023-01-08T01:40:15.305Z,8.44
2023-01-08T01:43:00.707Z,8.43
2023-01-08T01:45:46.187Z,8.38
2023-01-08T01:48:31.821Z,8.35
2023-01-08T01:51:17.191Z,8.21
2023-01-08T01:54:05.113Z,8.36
2023-01-08T01:56:50.727Z,8.26
2023-01-08T01:59:36.117Z,8.23
2023-01-08T02:02:23.056Z,8.33
2023-01-08T02:05:09.470Z,8.41
2023-01-08T02:08:05.017Z,8.37
2023-01-08T02:11:23.585Z,8.41
2023-01-08T02:14:22.370Z,8.21
2023-01-08T02:17:15.002Z,8.23
2023-01-08T02:20:10.824Z,8.22
2023-01-08T02:23:14.207Z,8.24
2023-01-08T02:26:21.934Z,8.31
2023-01-08T02:29:10.807Z,8.22
2023-01-08T02:31:56.449Z,8.42
2023-01-08T02:34:42.106Z,8.34
2023-01-08T02:37:27.390Z,8.56
2023-01-08T02:40:33.753Z,8.60
2023-01-08T02:43:27.739Z,8.59
2023-01-08T02:46:17.738Z,8.45
2023-01-08T02:49:08.361Z,8.68
2023-01-08T02:51:57.292Z,8.56
2023-01-08T02:54:44.701Z,8.58
2023-01-08T02:57:33.117Z,8.68
2023-01-08T03:00:19.425Z,8.36
2023-01-08T03:03:15.730Z,8.59
2023-01-08T03:06:08.168Z,8.68
2023-01-08T03:08:53.921Z,8.85
2023-01-08T03:11:49.078Z,8.79
2023-01-08T03:14:55.668Z,8.92
2023-01-08T03:17:47.842Z,8.93
2023-01-08T03:20:35.617Z,8.94
2023-01-08T03:23:23.092Z,8.96
2023-01-08T03:26:09.752Z,8.95
2023-01-08T03:28:57.333Z,8.99
2023-01-08T03:31:45.312Z,9.08
2023-01-08T03:34:33.647Z,9.17
2023-01-08T03:37:24.959Z,9.13
2023-01-08T03:40:19.581Z,9.05
2023-01-08T03:43:04.940Z,9.01
2023-01-08T03:45:55.424Z,9.05
2023-01-08T03:48:41.031Z,8.97
2023-01-08T03:51:26.700Z,9.01
2023-01-08T03:54:15.917Z,9.03
2023-01-08T03:57:01.691Z,9.07
2023-01-08T03:59:47.102Z,9.13
2023-01-08T04:02:32.385Z,9.14
2023-01-08T04:05:17.706Z,9.23
2023-01-08T04:08:03.181Z,9.30
2023-01-08T04:10:48.438Z,9.18
2023-01-08T04:13:33.866Z,9.31
2023-01-08T04:16:19.500Z,9.18
2023-01-08T04:19:05.268Z,9.39
2023-01-08T04:21:51.750Z,9.34
2023-01-08T04:24:37.172Z,9.38
2023-01-08T04:27:22.933Z,9.44
2023-01-08T04:30:09.184Z,9.50
2023-01-08T04:32:54.545Z,9.44
2023-01-08T04:35:39.975Z,9.48
2023-01-08T04:38:25.217Z,9.48
2023-01-08T04:41:10.979Z,9.32
2023-01-08T04:43:56.407Z,9.41
2023-01-08T04:46:42.103Z,9.52
2023-01-08T04:49:27.711Z,9.50
2023-01-08T04:52:13.270Z,9.45
2023-01-08T04:54:58.656Z,9.42
2023-01-08T04:57:43.982Z,9.39
2023-01-08T05:00:29.566Z,9.50
2023-01-08T05:03:15.080Z,9.42
2023-01-08T05:06:00.715Z,9.47
2023-01-08T05:08:46.265Z,9.49
2023-01-08T05:11:31.884Z,9.55
2023-01-08T05:14:17.181Z,9.63
2023-01-08T05:17:02.775Z,9.61
2023-01-08T05:19:48.367Z,9.55
2023-01-08T05:22:34.259Z,9.61
2023-01-08T05:25:19.425Z,9.55
2023-01-08T05:28:04.946Z,9.56
2023-01-08T05:30:50.721Z,9.62
2023-01-08T05:33:36.306Z,9.49
2023-01-08T05:36:22.056Z,9.57
2023-01-08T05:39:07.690Z,9.61
2023-01-08T05:41:53.222Z,9.58
2023-01-08T05:44:38.781Z,9.64
2023-01-08T05:47:24.193Z,9.60
2023-01-08T05:50:10.057Z,9.56
2023-01-08T05:52:55.538Z,9.47
2023-01-08T05:55:40.921Z,9.55
2023-01-08T05:58:27.249Z,9.58
2023-01-08T06:01:17.750Z,9.74
2023-01-08T06:04:03.279Z,9.63
2023-01-08T06:06:48.989Z,9.68
2023-01-08T06:09:34.584Z,9.65
2023-01-08T06:12:20.194Z,9.58
2023-01-08T06:15:06.253Z,9.54
2023-01-08T06:17:51.357Z,9.51
2023-01-08T06:20:36.803Z,9.49
2023-01-08T06:23:22.088Z,9.54
2023-01-08T06:26:07.913Z,9.46
2023-01-08T06:28:53.428Z,9.47
2023-01-08T06:31:39.091Z,9.37
2023-01-08T06:34:24.899Z,9.31
2023-01-08T06:37:10.087Z,9.31
2023-01-08T06:39:55.416Z,9.22
2023-01-08T06:42:40.713Z,9.17
2023-01-08T06:45:26.002Z,9.13
2023-01-08T06:48:11.749Z,9.06
2023-01-08T06:50:59.765Z,9.17
2023-01-08T06:53:48.098Z,9.03
2023-01-08T06:56:45.369Z,8.78
2023-01-08T06:59:38.077Z,9.03
2023-01-08T07:02:25.586Z,9.12
2023-01-08T07:05:11.194Z,9.15
2023-01-08T07:07:57.033Z,9.06
2023-01-08T07:10:43.569Z,9.04
2023-01-08T07:13:29.492Z,8.92
2023-01-08T07:16:15.938Z,8.90
2023-01-08T07:19:01.769Z,8.94
2023-01-08T07:21:47.418Z,8.85
2023-01-08T07:24:33.151Z,8.98
2023-01-08T07:27:19.046Z,9.04
2023-01-08T07:30:05.081Z,8.97
2023-01-08T07:32:50.613Z,8.90
2023-01-08T07:35:36.854Z,8.90
2023-01-08T07:38:22.615Z,9.04
2023-01-08T07:41:07.918Z,8.99
2023-01-08T07:43:53.378Z,9.01
2023-01-08T07:46:39.147Z,8.88
2023-01-08T07:49:24.856Z,8.96
2023-01-08T07:52:10.307Z,9.07
2023-01-08T07:54:55.892Z,8.99
2023-01-08T07:57:41.063Z,9.05
2023-01-08T08:00:26.992Z,9.18
2023-01-08T08:03:12.669Z,9.09
2023-01-08T08:06:01.072Z,9.13
2023-01-08T08:08:46.573Z,9.07
2023-01-08T08:11:32.113Z,9.04
2023-01-08T08:14:17.402Z,9.04
2023-01-08T08:17:03.154Z,8.99
2023-01-08T08:19:48.656Z,8.98
2023-01-08T08:22:34.127Z,9.05
2023-01-08T08:25:19.754Z,9.01
2023-01-08T08:28:05.785Z,9.04
2023-01-08T08:30:51.409Z,9.01
2023-01-08T08:33:37.125Z,9.00
2023-01-08T08:36:28.311Z,9.09
2023-01-08T08:39:13.766Z,9.03
2023-01-08T08:41:59.076Z,9.04
2023-01-08T08:44:44.356Z,9.01
2023-01-08T08:47:30.072Z,8.99
2023-01-08T08:50:15.494Z,9.10
2023-01-08T08:53:05.379Z,9.02
2023-01-08T08:55:50.616Z,9.05
2023-01-08T08:58:35.942Z,9.13
2023-01-08T09:01:21.672Z,9.09
2023-01-08T09:04:07.232Z,9.09
2023-01-08T09:06:52.980Z,9.05
2023-01-08T09:09:38.527Z,9.10
2023-01-08T09:12:23.809Z,9.21
2023-01-08T09:15:09.918Z,9.15
2023-01-08T09:17:56.636Z,9.19
2023-01-08T09:20:43.762Z,9.19
2023-01-08T09:23:29.074Z,9.22
2023-01-08T09:26:14.888Z,9.20
2023-01-08T09:29:00.232Z,9.20
2023-01-08T09:31:46.592Z,9.26
2023-01-08T09:34:32.742Z,9.37
2023-01-08T09:37:18.183Z,9.40
2023-01-08T09:40:04.127Z,9.43
2023-01-08T09:42:55.801Z,9.42
2023-01-08T09:45:42.740Z,9.46
2023-01-08T09:48:31.863Z,9.52
2023-01-08T09:51:19.643Z,9.56
2023-01-08T09:54:07.459Z,9.61
2023-01-08T09:56:53.959Z,9.74
2023-01-08T09:59:39.620Z,9.72
2023-01-08T10:02:26.219Z,9.74
2023-01-08T10:05:15.276Z,9.89
2023-01-08T10:08:00.772Z,9.89
2023-01-08T10:10:46.600Z,9.97
2023-01-08T10:13:34.871Z,10.01
2023-01-08T10:16:41.064Z,10.01
2023-01-08T10:19:26.715Z,10.02
2023-01-08T10:22:15.393Z,9.97
2023-01-08T10:25:15.140Z,10.04
2023-01-08T10:28:02.455Z,10.05
2023-01-08T10:30:48.548Z,10.39
2023-01-08T10:33:41.522Z,10.73
2023-01-08T10:36:27.608Z,11.66
2023-01-08T10:39:45.785Z,12.85
2023-01-08T10:42:35.471Z,12.52
2023-01-08T10:45:26.934Z,12.06
2023-01-08T10:48:17.548Z,11.99
2023-01-08T10:51:16.520Z,11.94
2023-01-08T10:54:23.353Z,11.84
2023-01-08T10:57:28.894Z,11.52
2023-01-08T11:00:29.269Z,11.58
2023-01-08T11:03:29.049Z,11.58
2023-01-08T11:06:20.784Z,12.47
2023-01-08T11:09:28.680Z,12.87
2023-01-08T11:12:39.912Z,13.11
2023-01-08T11:16:08.174Z,12.91
2023-01-08T11:18:53.753Z,12.62
2023-01-08T11:21:39.649Z,12.47
2023-01-08T11:24:45.949Z,12.33
2023-01-08T11:27:35.677Z,11.66
2023-01-08T11:30:25.301Z,11.61
2023-01-08T11:33:21.676Z,11.48
2023-01-08T11:36:23.641Z,11.36
2023-01-08T11:39:09.146Z,11.79
2023-01-08T11:42:05.590Z,12.33
2023-01-08T11:45:18.237Z,12.46
2023-01-08T11:48:28.597Z,12.47
2023-01-08T11:52:15.109Z,12.65
2023-01-08T11:55:13.625Z,13.96
2023-01-08T11:58:25.739Z,13.65
2023-01-08T12:01:31.035Z,14.05
2023-01-08T12:04:50.046Z,14.52
2023-01-08T12:07:58.438Z,16.98
2023-01-08T12:10:59.056Z,18.21
2023-01-08T12:13:55.412Z,15.13
2023-01-08T12:17:07.174Z,13.54
2023-01-08T12:20:15.379Z,13.11
2023-01-08T12:23:16.187Z,12.35
2023-01-08T12:26:42.208Z,12.02
2023-01-08T12:29:47.146Z,11.94
2023-01-08T12:32:43.498Z,11.82
2023-01-08T12:35:36.757Z,11.59
2023-01-08T12:38:28.383Z,11.32
2023-01-08T12:41:19.177Z,11.29
2023-01-08T12:44:11.813Z,11.45
2023-01-08T12:47:01.474Z,11.38
2023-01-08T12:50:02.824Z,11.40
2023-01-08T12:52:57.955Z,11.20
2023-01-08T12:56:10.427Z,11.40
2023-01-08T12:59:14.251Z,11.92
2023-01-08T13:02:30.907Z,14.17
2023-01-08T13:05:19.421Z,13.68
2023-01-08T13:08:23.633Z,13.32
2023-01-08T13:11:09.378Z,12.91
2023-01-08T13:14:12.363Z,12.65
2023-01-08T13:17:25.239Z,12.96
2023-01-08T13:20:21.980Z,12.72
2023-01-08T13:23:07.445Z,12.72
2023-01-08T13:25:56.031Z,13.71
2023-01-08T13:28:44.694Z,14.97
2023-01-08T13:31:39.815Z,16.46
2023-01-08T13:34:40.165Z,16.96
2023-01-08T13:37:27.709Z,17.96
2023-01-08T13:40:44.138Z,16.17
2023-01-08T13:43:38.344Z,14.35
2023-01-08T13:46:23.998Z,13.57
2023-01-08T13:49:26.871Z,13.51
2023-01-08T13:52:45.905Z,12.68
2023-01-08T13:55:38.849Z,12.69
2023-01-08T13:58:31.701Z,12.48
2023-01-08T14:01:17.805Z,12.18
2023-01-08T14:04:03.833Z,12.22
2023-01-08T14:06:49.745Z,11.61
2023-01-08T14:09:35.134Z,11.63
2023-01-08T14:12:23.150Z,11.62
2023-01-08T14:15:16.930Z,11.87
2023-01-08T14:18:03.280Z,12.00
2023-01-08T14:20:50.982Z,11.91
2023-01-08T14:23:39.986Z,12.03
2023-01-08T14:26:29.590Z,12.09
2023-01-08T14:29:18.659Z,11.88
2023-01-08T14:32:16.134Z,11.53
2023-01-08T14:35:03.829Z,11.32
2023-01-08T14:37:49.395Z,11.08
2023-01-08T14:40:41.083Z,11.04
2023-01-08T14:43:26.709Z,10.92
2023-01-08T14:46:25.181Z,10.86
2023-01-08T14:49:23.325Z,10.85
2023-01-08T14:52:12.844Z,10.77
2023-01-08T14:55:03.064Z,10.69
2023-01-08T14:57:54.568Z,10.50
2023-01-08T15:00:40.512Z,10.44
2023-01-08T15:03:34.938Z,10.31
2023-01-08T15:06:28.969Z,10.44
2023-01-08T15:09:31.672Z,10.28
2023-01-08T15:12:26.246Z,10.25
2023-01-08T15:15:22.096Z,10.17
2023-01-08T15:18:11.650Z,10.08
2023-01-08T15:20:57.539Z,9.95
2023-01-08T15:23:50.054Z,9.88
2023-01-08T15:26:41.702Z,9.72
2023-01-08T15:29:33.089Z,9.78
2023-01-08T15:32:22.539Z,9.69
2023-01-08T15:35:16.285Z,9.60
2023-01-08T15:38:01.662Z,9.55
2023-01-08T15:40:48.334Z,9.53
2023-01-08T15:43:33.691Z,9.27
2023-01-08T15:46:19.418Z,9.28
2023-01-08T15:49:05.417Z,9.24
2023-01-08T15:51:52.318Z,9.23
2023-01-08T15:54:38.552Z,9.09
2023-01-08T15:57:24.277Z,9.15
2023-01-08T16:00:12.834Z,9.03
2023-01-08T16:02:59.938Z,9.01
2023-01-08T16:05:45.750Z,8.95
2023-01-08T16:08:31.103Z,8.81
2023-01-08T16:11:19.781Z,8.88
2023-01-08T16:14:05.521Z,8.88
2023-01-08T16:16:50.779Z,8.77
2023-01-08T16:19:36.101Z,8.60
2023-01-08T16:22:21.385Z,8.74
2023-01-08T16:25:07.609Z,8.60
2023-01-08T16:27:53.223Z,8.53
2023-01-08T16:30:39.204Z,8.56
2023-01-08T16:33:24.993Z,8.57
2023-01-08T16:36:10.800Z,8.49
2023-01-08T16:38:56.392Z,8.48
2023-01-08T16:41:41.990Z,8.45
2023-01-08T16:44:28.616Z,8.37
2023-01-08T16:47:13.895Z,8.42
2023-01-08T16:49:59.571Z,8.17
2023-01-08T16:52:44.875Z,8.24
2023-01-08T16:55:30.788Z,8.28
2023-01-08T16:58:16.054Z,8.22
2023-01-08T17:01:06.568Z,8.14
2023-01-08T17:03:52.341Z,8.11
2023-01-08T17:06:37.960Z,8.14
2023-01-08T17:09:24.444Z,8.02
2023-01-08T17:12:10.055Z,8.09
2023-01-08T17:14:55.363Z,7.93
2023-01-08T17:17:40.940Z,8.11
2023-01-08T17:20:26.153Z,8.34
2023-01-08T17:23:11.713Z,8.19
2023-01-08T17:25:59.689Z,8.24
2023-01-08T17:28:45.166Z,8.25
2023-01-08T17:31:30.576Z,8.34
2023-01-08T17:34:15.934Z,8.25
2023-01-08T17:37:01.639Z,8.19
2023-01-08T17:39:48.597Z,8.33
2023-01-08T17:42:33.993Z,8.33
2023-01-08T17:45:19.417Z,8.37
2023-01-08T17:48:05.859Z,8.35
2023-01-08T17:50:51.422Z,8.43
2023-01-08T17:53:36.806Z,8.49
2023-01-08T17:56:22.331Z,8.49
2023-01-08T17:59:07.867Z,8.55
2023-01-08T18:01:53.657Z,8.52
2023-01-08T18:04:42.727Z,8.48
2023-01-08T18:07:28.073Z,8.54
2023-01-08T18:10:13.544Z,8.43
2023-01-08T18:12:59.179Z,8.48
2023-01-08T18:15:44.629Z,8.48
2023-01-08T18:18:30.281Z,8.50
2023-01-08T18:21:15.688Z,8.44
2023-01-08T18:24:01.124Z,8.39
2023-01-08T18:26:46.577Z,8.30
2023-01-08T18:29:31.985Z,8.36
2023-01-08T18:32:22.004Z,8.41
2023-01-08T18:35:07.935Z,8.48
2023-01-08T18:37:55.438Z,8.44
2023-01-08T18:40:43.003Z,8.52
2023-01-08T18:43:31.303Z,8.52
2023-01-08T18:46:16.530Z,8.51
2023-01-08T18:49:02.270Z,8.56
2023-01-08T18:51:47.880Z,8.38
2023-01-08T18:54:35.178Z,8.53
2023-01-08T18:57:20.879Z,8.47
2023-01-08T19:00:07.215Z,8.50
2023-01-08T19:02:53.237Z,8.47
2023-01-08T19:05:42.401Z,8.41
2023-01-08T19:08:27.614Z,8.36
2023-01-08T19:11:13.999Z,8.45
2023-01-08T19:13:59.476Z,8.45
2023-01-08T19:16:50.995Z,8.37
2023-01-08T19:19:37.175Z,8.36
2023-01-08T19:22:26.455Z,8.36
2023-01-08T19:25:14.795Z,8.48
2023-01-08T19:28:00.135Z,8.39
2023-01-08T19:30:54.062Z,8.38
2023-01-08T19:33:40.554Z,8.35
2023-01-08T19:36:26.507Z,8.26
2023-01-08T19:39:12.125Z,8.24
2023-01-08T19:42:16.582Z,8.19
2023-01-08T19:45:02.380Z,8.13
2023-01-08T19:47:47.810Z,8.11
2023-01-08T19:50:34.113Z,7.92
2023-01-08T19:53:19.498Z,7.92
2023-01-08T19:56:07.149Z,7.89
2023-01-08T19:58:52.826Z,7.69
2023-01-08T20:01:38.950Z,7.60
2023-01-08T20:04:24.661Z,7.58
2023-01-08T20:07:11.040Z,7.59
2023-01-08T20:09:57.820Z,7.49
2023-01-08T20:12:43.122Z,7.48
2023-01-08T20:15:29.011Z,7.43
2023-01-08T20:18:14.636Z,7.31
2023-01-08T20:21:09.482Z,7.36
2023-01-08T20:24:01.764Z,7.19
2023-01-08T20:26:47.284Z,7.17
2023-01-08T20:29:33.035Z,7.08
2023-01-08T20:32:20.070Z,7.08
2023-01-08T20:35:07.812Z,6.94
2023-01-08T20:37:53.339Z,7.10
2023-01-08T20:40:38.957Z,7.14
2023-01-08T20:43:24.575Z,7.18
2023-01-08T20:46:11.671Z,7.27
2023-01-08T20:49:03.583Z,7.40
2023-01-08T20:51:58.079Z,7.66
2023-01-08T20:54:44.067Z,7.59
2023-01-08T20:57:29.463Z,7.68
2023-01-08T21:00:15.247Z,7.64
2023-01-08T21:03:00.597Z,7.76
2023-01-08T21:05:46.354Z,7.75
2023-01-08T21:08:31.738Z,7.70
2023-01-08T21:11:18.018Z,7.74
2023-01-08T21:14:04.063Z,7.81
2023-01-08T21:16:49.578Z,7.69
2023-01-08T21:19:35.044Z,7.78
2023-01-08T21:22:20.372Z,7.70
2023-01-08T21:25:06.620Z,7.85
2023-01-08T21:27:52.107Z,7.85
2023-01-08T21:30:37.453Z,7.65
2023-01-08T21:33:22.804Z,7.42
2023-01-08T21:36:11.983Z,7.78
2023-01-08T21:38:58.245Z,7.84
2023-01-08T21:42:01.897Z,7.74
2023-01-08T21:45:05.869Z,7.89
2023-01-08T21:47:52.034Z,7.90
2023-01-08T21:50:37.375Z,7.91
2023-01-08T21:53:31.394Z,7.89
2023-01-08T21:56:16.853Z,7.93
2023-01-08T21:59:02.435Z,8.03
2023-01-08T22:01:48.149Z,7.74
2023-01-08T22:04:33.896Z,7.67
2023-01-08T22:07:19.453Z,7.50
2023-01-08T22:10:06.299Z,7.55
2023-01-08T22:12:52.568Z,7.42
2023-01-08T22:15:38.071Z,7.38
2023-01-08T22:18:23.632Z,7.28
2023-01-08T22:21:12.412Z,7.24
2023-01-08T22:23:57.754Z,7.03
2023-01-08T22:26:43.134Z,6.95
2023-01-08T22:29:28.749Z,6.87
2023-01-08T22:32:14.370Z,6.79
2023-01-08T22:34:59.754Z,6.80
2023-01-08T22:37:47.045Z,6.80
2023-01-08T22:40:32.652Z,6.78
2023-01-08T22:43:17.862Z,6.80
2023-01-08T22:46:03.630Z,6.75
2023-01-08T22:48:49.136Z,6.69
2023-01-08T22:51:34.721Z,6.65
2023-01-08T22:54:20.428Z,6.60
2023-01-08T22:57:06.877Z,6.58
2023-01-08T22:59:52.286Z,6.56
2023-01-08T23:02:37.729Z,6.59
2023-01-08T23:05:23.290Z,6.54
2023-01-08T23:08:08.959Z,6.51
2023-01-08T23:10:57.205Z,6.55
2023-01-08T23:13:42.569Z,6.51
2023-01-08T23:16:28.108Z,6.60
2023-01-08T23:19:13.935Z,6.67
2023-01-08T23:21:59.775Z,6.73
2023-01-08T23:24:45.380Z,6.56
2023-01-08T23:27:32.037Z,6.58
2023-01-08T23:30:17.468Z,6.64
2023-01-08T23:33:02.713Z,6.56
2023-01-08T23:35:48.668Z,6.61
2023-01-08T23:38:34.302Z,6.65
2023-01-08T23:41:21.600Z,6.69
2023-01-08T23:44:11.317Z,6.59
2023-01-08T23:46:56.767Z,6.57
2023-01-08T23:49:42.149Z,6.61
2023-01-08T23:52:27.919Z,6.78
2023-01-08T23:55:13.259Z,6.67
2023-01-08T23:57:58.924Z,6.65
